sensor_id;sensor_type;location;lat;lon;timestamp;P1;durP1;ratioP1;P2;durP2;ratioP2
37655;SDS011;23498;50.958;3.124;2023-07-31T00:00:32;18.80;;;5.70;;
37655;SDS011;23498;50.958;3.124;2023-07-31T00:02:59;15.52;;;5.07;;
37655;SDS011;23498;50.958;3.124;2023-07-31T00:05:25;17.88;;;5.50;;
37655;SDS011;23498;50.958;3.124;2023-07-31T00:07:51;18.90;;;5.45;;
37655;SDS011;23498;50.958;3.124;2023-07-31T00:10:17;16.77;;;5.60;;
37655;SDS011;23498;50.958;3.124;2023-07-31T00:12:43;15.13;;;5.10;;
37655;SDS011;23498;50.958;3.124;2023-07-31T00:15:09;19.20;;;5.70;;
37655;SDS011;23498;50.958;3.124;2023-07-31T00:17:36;19.60;;;6.38;;
37655;SDS011;23498;50.958;3.124;2023-07-31T00:20:02;17.15;;;4.88;;
37655;SDS011;23498;50.958;3.124;2023-07-31T00:22:28;16.55;;;5.30;;
37655;SDS011;23498;50.958;3.124;2023-07-31T00:24:55;12.65;;;4.97;;
37655;SDS011;23498;50.958;3.124;2023-07-31T00:27:21;14.07;;;5.35;;
37655;SDS011;23498;50.958;3.124;2023-07-31T00:29:47;16.67;;;4.97;;
37655;SDS011;23498;50.958;3.124;2023-07-31T00:32:13;17.48;;;5.53;;
37655;SDS011;23498;50.958;3.124;2023-07-31T00:34:40;15.10;;;5.22;;
37655;SDS011;23498;50.958;3.124;2023-07-31T00:37:06;19.90;;;5.65;;
37655;SDS011;23498;50.958;3.124;2023-07-31T00:39:33;16.42;;;5.00;;
37655;SDS011;23498;50.958;3.124;2023-07-31T00:41:59;15.63;;;5.03;;
37655;SDS011;23498;50.958;3.124;2023-07-31T00:44:25;15.05;;;4.80;;
37655;SDS011;23498;50.958;3.124;2023-07-31T00:46:51;15.57;;;5.15;;
37655;SDS011;23498;50.958;3.124;2023-07-31T00:49:18;13.50;;;4.97;;
37655;SDS011;23498;50.958;3.124;2023-07-31T00:51:44;12.23;;;4.72;;
37655;SDS011;23498;50.958;3.124;2023-07-31T00:54:10;14.75;;;5.53;;
37655;SDS011;23498;50.958;3.124;2023-07-31T00:56:36;15.32;;;4.97;;
37655;SDS011;23498;50.958;3.124;2023-07-31T00:59:02;13.55;;;4.90;;
37655;SDS011;23498;50.958;3.124;2023-07-31T01:01:28;14.90;;;5.07;;
37655;SDS011;23498;50.958;3.124;2023-07-31T01:03:54;17.88;;;5.22;;
37655;SDS011;23498;50.958;3.124;2023-07-31T01:06:27;13.00;;;4.55;;
37655;SDS011;23498;50.958;3.124;2023-07-31T01:11:27;12.15;;;4.78;;
37655;SDS011;23498;50.958;3.124;2023-07-31T01:13:54;14.57;;;5.18;;
37655;SDS011;23498;50.958;3.124;2023-07-31T01:16:20;15.32;;;5.20;;
37655;SDS011;23498;50.958;3.124;2023-07-31T01:18:46;15.23;;;4.45;;
37655;SDS011;23498;50.958;3.124;2023-07-31T01:26:28;15.50;;;4.60;;
37655;SDS011;23498;50.958;3.124;2023-07-31T01:29:06;14.38;;;4.93;;
37655;SDS011;23498;50.958;3.124;2023-07-31T01:31:32;14.15;;;4.50;;
37655;SDS011;23498;50.958;3.124;2023-07-31T01:34:02;14.07;;;4.97;;
37655;SDS011;23498;50.958;3.124;2023-07-31T01:36:29;13.95;;;4.53;;
37655;SDS011;23498;50.958;3.124;2023-07-31T01:38:59;12.48;;;4.75;;
37655;SDS011;23498;50.958;3.124;2023-07-31T01:41:25;14.52;;;4.57;;
37655;SDS011;23498;50.958;3.124;2023-07-31T01:43:51;11.52;;;4.72;;
37655;SDS011;23498;50.958;3.124;2023-07-31T01:46:17;12.95;;;4.60;;
37655;SDS011;23498;50.958;3.124;2023-07-31T01:48:43;12.40;;;4.50;;
37655;SDS011;23498;50.958;3.124;2023-07-31T01:51:09;15.77;;;4.78;;
37655;SDS011;23498;50.958;3.124;2023-07-31T01:53:35;15.23;;;4.47;;
37655;SDS011;23498;50.958;3.124;2023-07-31T01:56:01;13.80;;;4.22;;
37655;SDS011;23498;50.958;3.124;2023-07-31T01:58:27;12.68;;;4.40;;
37655;SDS011;23498;50.958;3.124;2023-07-31T02:00:53;12.65;;;4.78;;
37655;SDS011;23498;50.958;3.124;2023-07-31T02:03:19;12.57;;;4.05;;
37655;SDS011;23498;50.958;3.124;2023-07-31T02:05:46;18.60;;;4.30;;
37655;SDS011;23498;50.958;3.124;2023-07-31T02:08:13;15.85;;;4.60;;
37655;SDS011;23498;50.958;3.124;2023-07-31T02:10:38;12.63;;;4.15;;
37655;SDS011;23498;50.958;3.124;2023-07-31T02:13:04;13.20;;;4.35;;
37655;SDS011;23498;50.958;3.124;2023-07-31T02:15:30;12.65;;;4.45;;
37655;SDS011;23498;50.958;3.124;2023-07-31T02:17:57;12.93;;;4.57;;
37655;SDS011;23498;50.958;3.124;2023-07-31T02:20:23;13.10;;;4.13;;
37655;SDS011;23498;50.958;3.124;2023-07-31T02:22:49;13.45;;;4.20;;
37655;SDS011;23498;50.958;3.124;2023-07-31T02:25:15;15.70;;;4.32;;
37655;SDS011;23498;50.958;3.124;2023-07-31T02:27:41;17.08;;;4.60;;
37655;SDS011;23498;50.958;3.124;2023-07-31T02:30:07;14.07;;;4.55;;
37655;SDS011;23498;50.958;3.124;2023-07-31T02:32:33;11.57;;;4.22;;
37655;SDS011;23498;50.958;3.124;2023-07-31T02:34:59;12.73;;;3.90;;
37655;SDS011;23498;50.958;3.124;2023-07-31T02:37:25;10.93;;;3.63;;
37655;SDS011;23498;50.958;3.124;2023-07-31T02:39:53;11.48;;;4.10;;
37655;SDS011;23498;50.958;3.124;2023-07-31T02:42:19;12.15;;;4.28;;
37655;SDS011;23498;50.958;3.124;2023-07-31T02:44:45;10.25;;;3.88;;
37655;SDS011;23498;50.958;3.124;2023-07-31T02:47:11;11.50;;;4.00;;
37655;SDS011;23498;50.958;3.124;2023-07-31T02:49:37;10.90;;;4.45;;
37655;SDS011;23498;50.958;3.124;2023-07-31T02:52:03;12.63;;;4.07;;
37655;SDS011;23498;50.958;3.124;2023-07-31T02:54:29;11.75;;;4.15;;
37655;SDS011;23498;50.958;3.124;2023-07-31T02:56:55;13.13;;;4.50;;
37655;SDS011;23498;50.958;3.124;2023-07-31T02:59:21;14.13;;;4.72;;
37655;SDS011;23498;50.958;3.124;2023-07-31T03:01:47;10.10;;;4.90;;
37655;SDS011;23498;50.958;3.124;2023-07-31T03:04:13;11.02;;;4.68;;
37655;SDS011;23498;50.958;3.124;2023-07-31T03:06:39;12.88;;;4.72;;
37655;SDS011;23498;50.958;3.124;2023-07-31T03:09:05;11.50;;;4.63;;
37655;SDS011;23498;50.958;3.124;2023-07-31T03:11:31;12.00;;;4.43;;
37655;SDS011;23498;50.958;3.124;2023-07-31T03:13:57;9.60;;;4.78;;
37655;SDS011;23498;50.958;3.124;2023-07-31T03:16:23;11.70;;;4.72;;
37655;SDS011;23498;50.958;3.124;2023-07-31T03:18:49;13.05;;;4.63;;
37655;SDS011;23498;50.958;3.124;2023-07-31T03:21:15;11.27;;;4.43;;
37655;SDS011;23498;50.958;3.124;2023-07-31T03:23:41;15.73;;;4.93;;
37655;SDS011;23498;50.958;3.124;2023-07-31T03:26:08;14.10;;;4.78;;
37655;SDS011;23498;50.958;3.124;2023-07-31T03:28:34;10.75;;;4.80;;
37655;SDS011;23498;50.958;3.124;2023-07-31T03:31:00;9.48;;;4.40;;
37655;SDS011;23498;50.958;3.124;2023-07-31T03:33:26;12.82;;;4.50;;
37655;SDS011;23498;50.958;3.124;2023-07-31T03:35:53;11.52;;;4.95;;
37655;SDS011;23498;50.958;3.124;2023-07-31T03:38:19;12.38;;;4.72;;
37655;SDS011;23498;50.958;3.124;2023-07-31T03:40:45;12.93;;;4.88;;
37655;SDS011;23498;50.958;3.124;2023-07-31T03:43:11;12.07;;;4.78;;
37655;SDS011;23498;50.958;3.124;2023-07-31T03:45:37;13.35;;;4.80;;
37655;SDS011;23498;50.958;3.124;2023-07-31T03:48:03;12.73;;;4.68;;
37655;SDS011;23498;50.958;3.124;2023-07-31T03:50:29;13.73;;;4.97;;
37655;SDS011;23498;50.958;3.124;2023-07-31T03:52:55;14.10;;;4.30;;
37655;SDS011;23498;50.958;3.124;2023-07-31T03:55:21;12.13;;;4.65;;
37655;SDS011;23498;50.958;3.124;2023-07-31T03:57:47;11.77;;;4.38;;
37655;SDS011;23498;50.958;3.124;2023-07-31T04:00:13;10.43;;;4.07;;
37655;SDS011;23498;50.958;3.124;2023-07-31T04:02:39;12.07;;;4.15;;
37655;SDS011;23498;50.958;3.124;2023-07-31T04:05:06;10.68;;;3.88;;
37655;SDS011;23498;50.958;3.124;2023-07-31T04:07:32;10.93;;;4.90;;
37655;SDS011;23498;50.958;3.124;2023-07-31T04:09:58;8.70;;;3.75;;
37655;SDS011;23498;50.958;3.124;2023-07-31T04:12:24;7.72;;;3.90;;
37655;SDS011;23498;50.958;3.124;2023-07-31T04:14:50;10.55;;;4.30;;
37655;SDS011;23498;50.958;3.124;2023-07-31T04:17:17;9.52;;;3.72;;
37655;SDS011;23498;50.958;3.124;2023-07-31T04:19:43;10.48;;;4.03;;
37655;SDS011;23498;50.958;3.124;2023-07-31T04:22:09;9.60;;;3.75;;
37655;SDS011;23498;50.958;3.124;2023-07-31T04:24:35;11.10;;;4.32;;
37655;SDS011;23498;50.958;3.124;2023-07-31T04:27:01;9.25;;;3.92;;
37655;SDS011;23498;50.958;3.124;2023-07-31T04:29:27;9.30;;;4.03;;
37655;SDS011;23498;50.958;3.124;2023-07-31T04:31:53;10.10;;;4.22;;
37655;SDS011;23498;50.958;3.124;2023-07-31T04:34:19;9.38;;;3.92;;
37655;SDS011;23498;50.958;3.124;2023-07-31T04:36:45;8.25;;;3.55;;
37655;SDS011;23498;50.958;3.124;2023-07-31T04:39:11;8.52;;;3.88;;
37655;SDS011;23498;50.958;3.124;2023-07-31T04:41:37;8.75;;;3.58;;
37655;SDS011;23498;50.958;3.124;2023-07-31T04:44:03;9.25;;;3.58;;
37655;SDS011;23498;50.958;3.124;2023-07-31T04:46:29;6.55;;;3.50;;
37655;SDS011;23498;50.958;3.124;2023-07-31T04:48:56;7.88;;;3.78;;
37655;SDS011;23498;50.958;3.124;2023-07-31T04:51:22;8.18;;;3.33;;
37655;SDS011;23498;50.958;3.124;2023-07-31T04:53:48;9.00;;;3.30;;
37655;SDS011;23498;50.958;3.124;2023-07-31T04:56:15;10.23;;;4.07;;
37655;SDS011;23498;50.958;3.124;2023-07-31T04:58:41;8.13;;;3.33;;
37655;SDS011;23498;50.958;3.124;2023-07-31T05:01:07;7.57;;;3.60;;
37655;SDS011;23498;50.958;3.124;2023-07-31T05:03:33;6.13;;;3.22;;
37655;SDS011;23498;50.958;3.124;2023-07-31T05:05:59;5.97;;;2.95;;
37655;SDS011;23498;50.958;3.124;2023-07-31T05:08:25;7.68;;;3.15;;
37655;SDS011;23498;50.958;3.124;2023-07-31T05:10:51;9.30;;;3.83;;
37655;SDS011;23498;50.958;3.124;2023-07-31T05:13:17;5.57;;;3.30;;
37655;SDS011;23498;50.958;3.124;2023-07-31T05:15:43;10.88;;;4.07;;
37655;SDS011;23498;50.958;3.124;2023-07-31T05:18:09;7.18;;;3.45;;
37655;SDS011;23498;50.958;3.124;2023-07-31T05:20:35;7.45;;;3.88;;
37655;SDS011;23498;50.958;3.124;2023-07-31T05:23:01;11.77;;;3.95;;
37655;SDS011;23498;50.958;3.124;2023-07-31T05:25:27;11.20;;;3.83;;
37655;SDS011;23498;50.958;3.124;2023-07-31T05:27:53;8.77;;;4.50;;
37655;SDS011;23498;50.958;3.124;2023-07-31T05:30:19;7.65;;;3.70;;
37655;SDS011;23498;50.958;3.124;2023-07-31T05:32:46;11.40;;;3.97;;
37655;SDS011;23498;50.958;3.124;2023-07-31T05:35:12;8.65;;;4.15;;
37655;SDS011;23498;50.958;3.124;2023-07-31T05:37:38;10.18;;;4.43;;
37655;SDS011;23498;50.958;3.124;2023-07-31T05:40:04;8.73;;;4.05;;
37655;SDS011;23498;50.958;3.124;2023-07-31T05:42:30;9.20;;;3.88;;
37655;SDS011;23498;50.958;3.124;2023-07-31T05:44:56;8.30;;;4.20;;
37655;SDS011;23498;50.958;3.124;2023-07-31T05:47:22;11.80;;;4.10;;
37655;SDS011;23498;50.958;3.124;2023-07-31T05:49:49;8.35;;;3.85;;
37655;SDS011;23498;50.958;3.124;2023-07-31T05:52:17;9.55;;;3.65;;
37655;SDS011;23498;50.958;3.124;2023-07-31T05:54:43;10.20;;;3.95;;
37655;SDS011;23498;50.958;3.124;2023-07-31T05:57:11;11.77;;;4.07;;
37655;SDS011;23498;50.958;3.124;2023-07-31T05:59:37;7.88;;;3.85;;
37655;SDS011;23498;50.958;3.124;2023-07-31T06:02:03;7.72;;;4.00;;
37655;SDS011;23498;50.958;3.124;2023-07-31T06:04:29;6.22;;;3.55;;
37655;SDS011;23498;50.958;3.124;2023-07-31T06:06:55;7.45;;;3.20;;
37655;SDS011;23498;50.958;3.124;2023-07-31T06:09:21;8.55;;;3.60;;
37655;SDS011;23498;50.958;3.124;2023-07-31T06:11:47;7.95;;;3.72;;
37655;SDS011;23498;50.958;3.124;2023-07-31T06:14:14;10.02;;;3.42;;
37655;SDS011;23498;50.958;3.124;2023-07-31T06:16:40;8.55;;;2.90;;
37655;SDS011;23498;50.958;3.124;2023-07-31T06:19:06;7.68;;;3.63;;
37655;SDS011;23498;50.958;3.124;2023-07-31T06:21:32;8.15;;;3.20;;
37655;SDS011;23498;50.958;3.124;2023-07-31T06:23:58;7.63;;;3.25;;
37655;SDS011;23498;50.958;3.124;2023-07-31T06:26:24;7.53;;;3.20;;
37655;SDS011;23498;50.958;3.124;2023-07-31T06:28:50;6.70;;;3.33;;
37655;SDS011;23498;50.958;3.124;2023-07-31T06:31:16;9.27;;;3.22;;
37655;SDS011;23498;50.958;3.124;2023-07-31T06:33:45;7.85;;;3.08;;
37655;SDS011;23498;50.958;3.124;2023-07-31T06:36:11;5.00;;;2.97;;
37655;SDS011;23498;50.958;3.124;2023-07-31T06:38:37;8.25;;;3.08;;
37655;SDS011;23498;50.958;3.124;2023-07-31T06:41:03;9.75;;;3.40;;
37655;SDS011;23498;50.958;3.124;2023-07-31T06:43:29;7.13;;;3.08;;
37655;SDS011;23498;50.958;3.124;2023-07-31T06:45:56;6.07;;;2.90;;
37655;SDS011;23498;50.958;3.124;2023-07-31T06:48:22;6.95;;;2.95;;
37655;SDS011;23498;50.958;3.124;2023-07-31T06:50:51;6.57;;;2.72;;
37655;SDS011;23498;50.958;3.124;2023-07-31T06:53:17;5.15;;;2.47;;
37655;SDS011;23498;50.958;3.124;2023-07-31T06:55:43;6.55;;;2.72;;
37655;SDS011;23498;50.958;3.124;2023-07-31T06:58:09;5.55;;;2.72;;
37655;SDS011;23498;50.958;3.124;2023-07-31T07:00:35;6.22;;;2.60;;
37655;SDS011;23498;50.958;3.124;2023-07-31T07:03:01;4.97;;;2.47;;
37655;SDS011;23498;50.958;3.124;2023-07-31T07:05:28;5.57;;;2.88;;
37655;SDS011;23498;50.958;3.124;2023-07-31T07:07:54;5.70;;;2.78;;
37655;SDS011;23498;50.958;3.124;2023-07-31T07:10:20;6.47;;;2.65;;
37655;SDS011;23498;50.958;3.124;2023-07-31T07:12:47;5.97;;;2.72;;
37655;SDS011;23498;50.958;3.124;2023-07-31T07:15:14;5.82;;;2.60;;
37655;SDS011;23498;50.958;3.124;2023-07-31T07:17:40;5.93;;;2.65;;
37655;SDS011;23498;50.958;3.124;2023-07-31T07:20:07;6.00;;;2.83;;
37655;SDS011;23498;50.958;3.124;2023-07-31T07:22:33;5.55;;;2.60;;
37655;SDS011;23498;50.958;3.124;2023-07-31T07:24:59;5.72;;;2.78;;
37655;SDS011;23498;50.958;3.124;2023-07-31T07:27:26;5.57;;;2.92;;
37655;SDS011;23498;50.958;3.124;2023-07-31T07:29:52;6.70;;;2.60;;
37655;SDS011;23498;50.958;3.124;2023-07-31T07:32:18;5.15;;;2.60;;
37655;SDS011;23498;50.958;3.124;2023-07-31T07:34:45;4.53;;;2.50;;
37655;SDS011;23498;50.958;3.124;2023-07-31T07:37:11;5.45;;;2.60;;
37655;SDS011;23498;50.958;3.124;2023-07-31T07:39:37;4.38;;;2.30;;
37655;SDS011;23498;50.958;3.124;2023-07-31T07:42:03;5.57;;;2.40;;
37655;SDS011;23498;50.958;3.124;2023-07-31T07:44:29;5.03;;;2.20;;
37655;SDS011;23498;50.958;3.124;2023-07-31T07:46:55;5.53;;;2.72;;
37655;SDS011;23498;50.958;3.124;2023-07-31T07:49:21;5.47;;;2.30;;
37655;SDS011;23498;50.958;3.124;2023-07-31T07:51:48;4.75;;;2.58;;
37655;SDS011;23498;50.958;3.124;2023-07-31T07:54:14;4.55;;;2.47;;
37655;SDS011;23498;50.958;3.124;2023-07-31T07:56:41;5.38;;;2.40;;
37655;SDS011;23498;50.958;3.124;2023-07-31T07:59:08;5.30;;;2.38;;
37655;SDS011;23498;50.958;3.124;2023-07-31T08:01:34;5.07;;;2.50;;
37655;SDS011;23498;50.958;3.124;2023-07-31T08:04:00;5.40;;;2.20;;
37655;SDS011;23498;50.958;3.124;2023-07-31T08:06:26;4.65;;;2.28;;
37655;SDS011;23498;50.958;3.124;2023-07-31T08:08:52;5.25;;;2.50;;
37655;SDS011;23498;50.958;3.124;2023-07-31T08:11:18;3.50;;;2.00;;
37655;SDS011;23498;50.958;3.124;2023-07-31T08:13:44;4.15;;;2.40;;
37655;SDS011;23498;50.958;3.124;2023-07-31T08:16:10;5.53;;;2.30;;
37655;SDS011;23498;50.958;3.124;2023-07-31T08:18:36;5.68;;;2.50;;
37655;SDS011;23498;50.958;3.124;2023-07-31T08:21:02;5.85;;;2.60;;
37655;SDS011;23498;50.958;3.124;2023-07-31T08:23:28;5.15;;;2.97;;
37655;SDS011;23498;50.958;3.124;2023-07-31T08:25:54;4.90;;;2.72;;
37655;SDS011;23498;50.958;3.124;2023-07-31T08:28:20;5.13;;;2.83;;
37655;SDS011;23498;50.958;3.124;2023-07-31T08:30:46;4.82;;;2.63;;
37655;SDS011;23498;50.958;3.124;2023-07-31T08:33:12;4.05;;;2.70;;
37655;SDS011;23498;50.958;3.124;2023-07-31T08:35:38;4.65;;;2.95;;
37655;SDS011;23498;50.958;3.124;2023-07-31T08:38:04;5.07;;;3.10;;
37655;SDS011;23498;50.958;3.124;2023-07-31T08:40:30;4.85;;;2.70;;
37655;SDS011;23498;50.958;3.124;2023-07-31T08:42:56;4.55;;;2.97;;
37655;SDS011;23498;50.958;3.124;2023-07-31T08:45:27;5.22;;;3.10;;
37655;SDS011;23498;50.958;3.124;2023-07-31T08:47:53;5.85;;;3.42;;
37655;SDS011;23498;50.958;3.124;2023-07-31T08:50:19;5.78;;;3.10;;
37655;SDS011;23498;50.958;3.124;2023-07-31T08:52:46;4.85;;;3.30;;
37655;SDS011;23498;50.958;3.124;2023-07-31T08:55:12;6.70;;;3.25;;
37655;SDS011;23498;50.958;3.124;2023-07-31T08:57:39;7.05;;;2.92;;
37655;SDS011;23498;50.958;3.124;2023-07-31T09:00:06;5.75;;;2.92;;
37655;SDS011;23498;50.958;3.124;2023-07-31T09:05:01;6.32;;;3.28;;
37655;SDS011;23498;50.958;3.124;2023-07-31T09:07:28;7.50;;;3.70;;
37655;SDS011;23498;50.958;3.124;2023-07-31T09:09:55;6.53;;;3.65;;
37655;SDS011;23498;50.958;3.124;2023-07-31T09:12:21;6.65;;;3.75;;
37655;SDS011;23498;50.958;3.124;2023-07-31T09:14:47;5.68;;;3.53;;
37655;SDS011;23498;50.958;3.124;2023-07-31T09:17:13;9.05;;;4.75;;
37655;SDS011;23498;50.958;3.124;2023-07-31T09:19:39;7.07;;;3.97;;
37655;SDS011;23498;50.958;3.124;2023-07-31T09:22:05;8.93;;;4.47;;
37655;SDS011;23498;50.958;3.124;2023-07-31T09:24:32;8.75;;;4.30;;
37655;SDS011;23498;50.958;3.124;2023-07-31T09:26:59;8.43;;;4.55;;
37655;SDS011;23498;50.958;3.124;2023-07-31T09:29:26;7.50;;;4.70;;
37655;SDS011;23498;50.958;3.124;2023-07-31T09:31:53;6.32;;;4.40;;
37655;SDS011;23498;50.958;3.124;2023-07-31T09:34:19;6.40;;;4.30;;
37655;SDS011;23498;50.958;3.124;2023-07-31T09:36:46;9.35;;;4.65;;
37655;SDS011;23498;50.958;3.124;2023-07-31T09:39:13;8.73;;;4.82;;
37655;SDS011;23498;50.958;3.124;2023-07-31T09:41:44;6.00;;;3.80;;
37655;SDS011;23498;50.958;3.124;2023-07-31T09:44:11;7.32;;;4.32;;
37655;SDS011;23498;50.958;3.124;2023-07-31T09:46:37;7.20;;;4.25;;
37655;SDS011;23498;50.958;3.124;2023-07-31T09:49:04;7.45;;;3.90;;
37655;SDS011;23498;50.958;3.124;2023-07-31T09:51:31;6.20;;;3.95;;
37655;SDS011;23498;50.958;3.124;2023-07-31T09:53:57;6.70;;;3.88;;
37655;SDS011;23498;50.958;3.124;2023-07-31T09:56:23;9.27;;;4.03;;
37655;SDS011;23498;50.958;3.124;2023-07-31T09:58:49;6.18;;;3.72;;
37655;SDS011;23498;50.958;3.124;2023-07-31T10:01:15;7.78;;;4.18;;
37655;SDS011;23498;50.958;3.124;2023-07-31T10:03:42;6.93;;;4.10;;
37655;SDS011;23498;50.958;3.124;2023-07-31T10:06:10;9.18;;;4.95;;
37655;SDS011;23498;50.958;3.124;2023-07-31T10:08:36;11.00;;;4.50;;
37655;SDS011;23498;50.958;3.124;2023-07-31T10:11:03;7.75;;;4.32;;
37655;SDS011;23498;50.958;3.124;2023-07-31T10:13:30;9.45;;;4.47;;
37655;SDS011;23498;50.958;3.124;2023-07-31T10:15:59;11.07;;;5.22;;
37655;SDS011;23498;50.958;3.124;2023-07-31T10:18:26;9.48;;;5.13;;
37655;SDS011;23498;50.958;3.124;2023-07-31T10:20:52;7.85;;;4.47;;
37655;SDS011;23498;50.958;3.124;2023-07-31T10:23:18;7.57;;;4.20;;
37655;SDS011;23498;50.958;3.124;2023-07-31T10:25:44;8.52;;;4.57;;
37655;SDS011;23498;50.958;3.124;2023-07-31T10:28:10;8.25;;;4.40;;
37655;SDS011;23498;50.958;3.124;2023-07-31T10:30:36;18.02;;;6.65;;
37655;SDS011;23498;50.958;3.124;2023-07-31T10:33:03;6.97;;;3.72;;
37655;SDS011;23498;50.958;3.124;2023-07-31T10:35:30;6.32;;;3.30;;
37655;SDS011;23498;50.958;3.124;2023-07-31T10:38:05;9.70;;;4.03;;
37655;SDS011;23498;50.958;3.124;2023-07-31T10:40:35;5.43;;;3.28;;
37655;SDS011;23498;50.958;3.124;2023-07-31T10:43:01;9.90;;;4.05;;
37655;SDS011;23498;50.958;3.124;2023-07-31T10:45:31;5.93;;;3.30;;
37655;SDS011;23498;50.958;3.124;2023-07-31T10:47:58;7.95;;;3.25;;
37655;SDS011;23498;50.958;3.124;2023-07-31T10:50:28;8.57;;;3.25;;
37655;SDS011;23498;50.958;3.124;2023-07-31T10:52:56;6.00;;;3.05;;
37655;SDS011;23498;50.958;3.124;2023-07-31T10:55:30;8.05;;;3.40;;
37655;SDS011;23498;50.958;3.124;2023-07-31T10:58:12;7.03;;;2.95;;
37655;SDS011;23498;50.958;3.124;2023-07-31T11:03:05;7.60;;;3.00;;
37655;SDS011;23498;50.958;3.124;2023-07-31T11:08:23;6.20;;;3.40;;
37655;SDS011;23498;50.958;3.124;2023-07-31T11:10:51;4.88;;;2.67;;
37655;SDS011;23498;50.958;3.124;2023-07-31T11:13:17;5.55;;;2.88;;
37655;SDS011;23498;50.958;3.124;2023-07-31T11:15:43;6.10;;;3.30;;
37655;SDS011;23498;50.958;3.124;2023-07-31T11:18:09;5.68;;;3.15;;
37655;SDS011;23498;50.958;3.124;2023-07-31T11:20:36;9.00;;;3.20;;
37655;SDS011;23498;50.958;3.124;2023-07-31T11:23:05;6.97;;;3.25;;
37655;SDS011;23498;50.958;3.124;2023-07-31T11:25:31;6.78;;;3.17;;
37655;SDS011;23498;50.958;3.124;2023-07-31T11:28:02;5.30;;;2.90;;
37655;SDS011;23498;50.958;3.124;2023-07-31T11:30:28;8.70;;;3.00;;
37655;SDS011;23498;50.958;3.124;2023-07-31T11:32:55;9.25;;;3.22;;
37655;SDS011;23498;50.958;3.124;2023-07-31T11:35:21;5.47;;;3.00;;
37655;SDS011;23498;50.958;3.124;2023-07-31T11:37:47;5.90;;;3.30;;
37655;SDS011;23498;50.958;3.124;2023-07-31T11:40:13;8.35;;;3.25;;
37655;SDS011;23498;50.958;3.124;2023-07-31T11:42:40;7.13;;;3.50;;
37655;SDS011;23498;50.958;3.124;2023-07-31T11:45:09;6.20;;;3.50;;
37655;SDS011;23498;50.958;3.124;2023-07-31T11:47:36;6.35;;;3.10;;
37655;SDS011;23498;50.958;3.124;2023-07-31T11:50:03;5.57;;;2.60;;
37655;SDS011;23498;50.958;3.124;2023-07-31T11:52:32;5.05;;;2.97;;
37655;SDS011;23498;50.958;3.124;2023-07-31T11:54:59;4.95;;;2.60;;
37655;SDS011;23498;50.958;3.124;2023-07-31T11:57:25;6.00;;;2.33;;
37655;SDS011;23498;50.958;3.124;2023-07-31T11:59:52;4.93;;;2.25;;
37655;SDS011;23498;50.958;3.124;2023-07-31T12:02:18;4.70;;;2.47;;
37655;SDS011;23498;50.958;3.124;2023-07-31T12:04:46;6.10;;;2.55;;
37655;SDS011;23498;50.958;3.124;2023-07-31T12:07:12;4.85;;;2.65;;
37655;SDS011;23498;50.958;3.124;2023-07-31T12:09:38;5.80;;;2.65;;
37655;SDS011;23498;50.958;3.124;2023-07-31T12:12:07;3.92;;;2.40;;
37655;SDS011;23498;50.958;3.124;2023-07-31T12:14:34;3.97;;;2.53;;
37655;SDS011;23498;50.958;3.124;2023-07-31T12:17:01;4.88;;;2.83;;
37655;SDS011;23498;50.958;3.124;2023-07-31T12:19:29;4.30;;;2.70;;
37655;SDS011;23498;50.958;3.124;2023-07-31T12:21:56;5.50;;;2.83;;
37655;SDS011;23498;50.958;3.124;2023-07-31T12:24:22;4.75;;;3.03;;
37655;SDS011;23498;50.958;3.124;2023-07-31T12:26:48;4.78;;;2.95;;
37655;SDS011;23498;50.958;3.124;2023-07-31T12:29:14;6.68;;;3.63;;
37655;SDS011;23498;50.958;3.124;2023-07-31T12:31:41;6.57;;;3.80;;
37655;SDS011;23498;50.958;3.124;2023-07-31T12:34:17;5.05;;;3.88;;
37655;SDS011;23498;50.958;3.124;2023-07-31T12:36:43;6.10;;;3.65;;
37655;SDS011;23498;50.958;3.124;2023-07-31T12:39:09;5.25;;;3.47;;
37655;SDS011;23498;50.958;3.124;2023-07-31T12:41:36;4.65;;;3.30;;
37655;SDS011;23498;50.958;3.124;2023-07-31T12:44:02;6.70;;;4.05;;
37655;SDS011;23498;50.958;3.124;2023-07-31T12:46:28;5.38;;;3.75;;
37655;SDS011;23498;50.958;3.124;2023-07-31T12:48:54;7.15;;;4.03;;
37655;SDS011;23498;50.958;3.124;2023-07-31T12:51:20;6.32;;;3.97;;
37655;SDS011;23498;50.958;3.124;2023-07-31T12:53:47;5.97;;;4.10;;
37655;SDS011;23498;50.958;3.124;2023-07-31T12:56:13;6.57;;;4.20;;
37655;SDS011;23498;50.958;3.124;2023-07-31T12:58:39;7.18;;;3.97;;
37655;SDS011;23498;50.958;3.124;2023-07-31T13:01:05;5.57;;;3.80;;
37655;SDS011;23498;50.958;3.124;2023-07-31T13:03:31;5.93;;;3.38;;
37655;SDS011;23498;50.958;3.124;2023-07-31T13:05:57;5.07;;;3.10;;
37655;SDS011;23498;50.958;3.124;2023-07-31T13:08:23;6.07;;;2.80;;
37655;SDS011;23498;50.958;3.124;2023-07-31T13:10:49;5.50;;;2.53;;
37655;SDS011;23498;50.958;3.124;2023-07-31T13:13:15;7.35;;;3.03;;
37655;SDS011;23498;50.958;3.124;2023-07-31T13:15:41;5.03;;;2.78;;
37655;SDS011;23498;50.958;3.124;2023-07-31T13:18:07;5.32;;;2.45;;
37655;SDS011;23498;50.958;3.124;2023-07-31T13:20:33;4.75;;;2.53;;
37655;SDS011;23498;50.958;3.124;2023-07-31T13:22:59;4.43;;;2.38;;
37655;SDS011;23498;50.958;3.124;2023-07-31T13:25:25;4.50;;;2.70;;
37655;SDS011;23498;50.958;3.124;2023-07-31T13:27:52;4.53;;;2.28;;
37655;SDS011;23498;50.958;3.124;2023-07-31T13:30:18;4.63;;;2.30;;
37655;SDS011;23498;50.958;3.124;2023-07-31T13:32:44;5.28;;;2.88;;
37655;SDS011;23498;50.958;3.124;2023-07-31T13:35:10;5.10;;;2.70;;
37655;SDS011;23498;50.958;3.124;2023-07-31T13:37:37;5.07;;;2.83;;
37655;SDS011;23498;50.958;3.124;2023-07-31T13:40:03;4.82;;;2.70;;
37655;SDS011;23498;50.958;3.124;2023-07-31T13:42:30;4.57;;;2.35;;
37655;SDS011;23498;50.958;3.124;2023-07-31T13:44:56;4.90;;;2.28;;
37655;SDS011;23498;50.958;3.124;2023-07-31T13:47:22;4.28;;;2.00;;
37655;SDS011;23498;50.958;3.124;2023-07-31T13:49:48;4.10;;;1.90;;
37655;SDS011;23498;50.958;3.124;2023-07-31T13:52:14;3.40;;;1.65;;
37655;SDS011;23498;50.958;3.124;2023-07-31T13:54:40;2.78;;;1.48;;
37655;SDS011;23498;50.958;3.124;2023-07-31T13:57:08;4.40;;;1.63;;
37655;SDS011;23498;50.958;3.124;2023-07-31T13:59:34;2.65;;;1.42;;
37655;SDS011;23498;50.958;3.124;2023-07-31T14:02:00;1.73;;;1.15;;
37655;SDS011;23498;50.958;3.124;2023-07-31T14:04:26;3.28;;;1.30;;
37655;SDS011;23498;50.958;3.124;2023-07-31T14:06:52;2.85;;;1.50;;
37655;SDS011;23498;50.958;3.124;2023-07-31T14:09:18;2.08;;;1.05;;
37655;SDS011;23498;50.958;3.124;2023-07-31T14:11:44;2.63;;;1.40;;
37655;SDS011;23498;50.958;3.124;2023-07-31T14:14:10;3.28;;;1.55;;
37655;SDS011;23498;50.958;3.124;2023-07-31T14:16:36;3.00;;;1.30;;
37655;SDS011;23498;50.958;3.124;2023-07-31T14:19:02;2.33;;;1.00;;
37655;SDS011;23498;50.958;3.124;2023-07-31T14:21:28;1.88;;;0.90;;
37655;SDS011;23498;50.958;3.124;2023-07-31T14:23:54;1.38;;;0.90;;
37655;SDS011;23498;50.958;3.124;2023-07-31T14:26:20;2.22;;;0.88;;
37655;SDS011;23498;50.958;3.124;2023-07-31T14:28:46;2.00;;;1.20;;
37655;SDS011;23498;50.958;3.124;2023-07-31T14:31:13;1.55;;;0.80;;
37655;SDS011;23498;50.958;3.124;2023-07-31T14:33:39;1.52;;;0.80;;
37655;SDS011;23498;50.958;3.124;2023-07-31T14:36:05;2.05;;;0.95;;
37655;SDS011;23498;50.958;3.124;2023-07-31T14:38:31;1.48;;;0.90;;
37655;SDS011;23498;50.958;3.124;2023-07-31T14:40:57;2.13;;;1.00;;
37655;SDS011;23498;50.958;3.124;2023-07-31T14:43:23;2.03;;;1.00;;
37655;SDS011;23498;50.958;3.124;2023-07-31T14:45:49;2.85;;;1.00;;
37655;SDS011;23498;50.958;3.124;2023-07-31T14:48:16;1.75;;;1.00;;
37655;SDS011;23498;50.958;3.124;2023-07-31T14:50:42;2.20;;;1.20;;
37655;SDS011;23498;50.958;3.124;2023-07-31T14:53:08;2.03;;;1.00;;